Time,TemperatureF,DewpointF,PressureIn,WindDirection,WindDirectionDegrees,WindSpeedMPH,WindSpeedGustMPH,Humidity,HourlyPrecipIn,Conditions,Clouds,dailyrainin,SoftwareType,DateUTC
2013-03-07 00:02:00,41.0,38.0,-100.00,NNW,334,4.0,-999.0,92,0.00,,,-99.99,,2013-03-07 08:02:00,
2013-03-07 00:11:00,41.0,38.0,-100.00,NNW,334,4.0,-999.0,92,0.00,,,-99.99,,2013-03-07 08:11:00,
2013-03-07 00:22:00,41.0,38.0,-100.00,NNW,334,4.0,-999.0,92,0.00,,,-99.99,,2013-03-07 08:22:00,
2013-03-07 00:32:00,41.0,38.0,-100.00,NNW,334,4.0,-999.0,92,0.00,,,-99.99,,2013-03-07 08:32:00,
2013-03-07 00:43:00,41.0,38.0,-100.00,NNW,334,4.0,-999.0,92,0.00,,,-99.99,,2013-03-07 08:43:00,
2013-03-07 01:02:00,40.0,38.0,-100.00,SW,221,2.0,-999.0,93,0.00,,,-99.99,,2013-03-07 09:02:00,
2013-03-07 01:12:00,40.0,38.0,-100.00,SW,221,2.0,-999.0,93,0.00,,,-99.99,,2013-03-07 09:12:00,
2013-03-07 01:22:00,40.0,38.0,-100.00,SW,221,2.0,-999.0,93,0.00,,,-99.99,,2013-03-07 09:22:00,
2013-03-07 01:32:00,40.0,38.0,-100.00,SW,221,2.0,-999.0,93,0.00,,,-99.99,,2013-03-07 09:32:00,
2013-03-07 01:41:00,40.0,38.0,-100.00,SW,221,2.0,-999.0,93,0.00,,,-99.99,,2013-03-07 09:41:00,
2013-03-07 02:02:00,42.0,39.0,-100.00,WSW,239,1.0,-999.0,89,0.00,,,-99.99,,2013-03-07 10:02:00,
2013-03-07 02:12:00,42.0,39.0,-100.00,WSW,239,1.0,-999.0,89,0.00,,,-99.99,,2013-03-07 10:12:00,
2013-03-07 02:22:00,42.0,39.0,-100.00,WSW,239,1.0,-999.0,89,0.00,,,-99.99,,2013-03-07 10:22:00,
2013-03-07 02:32:00,42.0,39.0,-100.00,WSW,239,1.0,-999.0,89,0.00,,,-99.99,,2013-03-07 10:32:00,
2013-03-07 02:41:00,42.0,39.0,-100.00,WSW,239,1.0,-999.0,89,0.00,,,-99.99,,2013-03-07 10:41:00,
2013-03-07 03:02:00,39.0,36.0,-100.00,NW,316,4.0,-999.0,89,0.00,,,-99.99,,2013-03-07 11:02:00,
2013-03-07 03:11:00,39.0,36.0,-100.00,NW,316,4.0,-999.0,89,0.00,,,-99.99,,2013-03-07 11:11:00,
2013-03-07 03:22:00,39.0,36.0,-100.00,NW,316,4.0,-999.0,89,0.00,,,-99.99,,2013-03-07 11:22:00,
2013-03-07 03:32:00,39.0,36.0,-100.00,NW,316,4.0,-999.0,89,0.00,,,-99.99,,2013-03-07 11:32:00,
2013-03-07 03:41:00,39.0,36.0,-100.00,NW,316,4.0,-999.0,89,0.00,,,-99.99,,2013-03-07 11:41:00,
2013-03-07 04:02:00,37.0,35.0,-100.00,WNW,294,2.0,-999.0,94,0.00,,,-99.99,,2013-03-07 12:02:00,
2013-03-07 04:12:00,37.0,35.0,-100.00,WNW,294,2.0,-999.0,94,0.00,,,-99.99,,2013-03-07 12:12:00,
2013-03-07 04:22:00,37.0,35.0,-100.00,WNW,294,2.0,-999.0,94,0.00,,,-99.99,,2013-03-07 12:22:00,
2013-03-07 04:32:00,37.0,35.0,-100.00,WNW,294,2.0,-999.0,94,0.00,,,-99.99,,2013-03-07 12:32:00,
2013-03-07 04:41:00,37.0,35.0,-100.00,WNW,294,2.0,-999.0,94,0.00,,,-99.99,,2013-03-07 12:41:00,
2013-03-07 05:02:00,37.0,35.0,-100.00,West,277,5.0,-999.0,94,0.00,,,-99.99,,2013-03-07 13:02:00,
2013-03-07 05:12:00,37.0,35.0,-100.00,West,277,5.0,-999.0,94,0.00,,,-99.99,,2013-03-07 13:12:00,
2013-03-07 05:22:00,37.0,35.0,-100.00,West,277,5.0,-999.0,94,0.00,,,-99.99,,2013-03-07 13:22:00,
2013-03-07 05:32:00,37.0,35.0,-100.00,West,277,5.0,-999.0,94,0.00,,,-99.99,,2013-03-07 13:32:00,
2013-03-07 05:41:00,37.0,35.0,-100.00,West,277,5.0,-999.0,94,0.00,,,-99.99,,2013-03-07 13:41:00,
2013-03-07 06:01:00,39.0,36.0,-100.00,WNW,303,1.0,-999.0,91,0.00,,,-99.99,,2013-03-07 14:01:00,
2013-03-07 06:11:00,39.0,36.0,-100.00,WNW,303,1.0,-999.0,91,0.00,,,-99.99,,2013-03-07 14:11:00,
2013-03-07 06:22:00,39.0,36.0,-100.00,WNW,303,1.0,-999.0,91,0.00,,,-99.99,,2013-03-07 14:22:00,
2013-03-07 06:32:00,39.0,36.0,-100.00,WNW,303,1.0,-999.0,91,0.00,,,-99.99,,2013-03-07 14:32:00,
2013-03-07 06:41:00,39.0,36.0,-100.00,WNW,303,1.0,-999.0,91,0.00,,,-99.99,,2013-03-07 14:41:00,
2013-03-07 07:02:00,38.0,36.0,-100.00,WNW,301,1.0,-999.0,93,0.00,,,-99.99,,2013-03-07 15:02:00,
2013-03-07 07:12:00,38.0,36.0,-100.00,WNW,301,1.0,-999.0,93,0.00,,,-99.99,,2013-03-07 15:12:00,
2013-03-07 07:22:00,38.0,36.0,-100.00,WNW,301,1.0,-999.0,93,0.00,,,-99.99,,2013-03-07 15:22:00,
2013-03-07 07:32:00,38.0,36.0,-100.00,WNW,301,1.0,-999.0,93,0.00,,,-99.99,,2013-03-07 15:32:00,
2013-03-07 07:41:00,38.0,36.0,-100.00,WNW,301,1.0,-999.0,93,0.00,,,-99.99,,2013-03-07 15:41:00,
2013-03-07 08:02:00,40.0,38.0,-100.00,NW,305,5.0,-999.0,91,0.00,,,-99.99,,2013-03-07 16:02:00,
2013-03-07 08:12:00,40.0,38.0,-100.00,NW,305,5.0,-999.0,91,0.00,,,-99.99,,2013-03-07 16:12:00,
2013-03-07 08:22:00,40.0,38.0,-100.00,NW,305,5.0,-999.0,91,0.00,,,-99.99,,2013-03-07 16:22:00,
2013-03-07 08:32:00,40.0,38.0,-100.00,NW,305,5.0,-999.0,91,0.00,,,-99.99,,2013-03-07 16:32:00,
2013-03-07 08:41:00,40.0,38.0,-100.00,NW,305,5.0,-999.0,91,0.00,,,-99.99,,2013-03-07 16:41:00,
2013-03-07 09:02:00,45.0,39.0,-100.00,ENE,64,10.0,-999.0,82,0.00,,,-99.99,,2013-03-07 17:02:00,
2013-03-07 09:11:00,45.0,39.0,-100.00,ENE,64,10.0,-999.0,82,0.00,,,-99.99,,2013-03-07 17:11:00,
2013-03-07 09:22:00,45.0,39.0,-100.00,ENE,64,10.0,-999.0,82,0.00,,,-99.99,,2013-03-07 17:22:00,
2013-03-07 09:32:00,45.0,39.0,-100.00,ENE,64,10.0,-999.0,82,0.00,,,-99.99,,2013-03-07 17:32:00,
2013-03-07 09:41:00,45.0,39.0,-100.00,ENE,64,10.0,-999.0,82,0.00,,,-99.99,,2013-03-07 17:41:00,
2013-03-07 10:03:00,49.0,36.0,-100.00,ENE,63,10.0,-999.0,62,0.00,,,-99.99,,2013-03-07 18:03:00,
2013-03-07 10:11:00,49.0,36.0,-100.00,ENE,63,10.0,-999.0,62,0.00,,,-99.99,,2013-03-07 18:11:00,
2013-03-07 10:31:00,49.0,36.0,-100.00,ENE,63,10.0,-999.0,62,0.00,,,-99.99,,2013-03-07 18:31:00,
2013-03-07 10:41:00,49.0,36.0,-100.00,ENE,63,10.0,-999.0,62,0.00,,,-99.99,,2013-03-07 18:41:00,
2013-03-07 11:02:00,51.0,36.0,-100.00,NE,50,5.0,-999.0,55,0.00,,,-99.99,,2013-03-07 19:02:00,
2013-03-07 11:12:00,51.0,36.0,-100.00,NE,50,5.0,-999.0,55,0.00,,,-99.99,,2013-03-07 19:12:00,
2013-03-07 11:22:00,51.0,36.0,-100.00,NE,50,5.0,-999.0,55,0.00,,,-99.99,,2013-03-07 19:22:00,
2013-03-07 11:33:00,51.0,36.0,-100.00,NE,50,5.0,-999.0,55,0.00,,,-99.99,,2013-03-07 19:33:00,
2013-03-07 11:42:00,51.0,36.0,-100.00,NE,50,5.0,-999.0,55,0.00,,,-99.99,,2013-03-07 19:42:00,
2013-03-07 12:01:00,53.0,36.0,-100.00,East,79,5.0,-999.0,52,0.00,,,-99.99,,2013-03-07 20:01:00,
2013-03-07 12:21:00,53.0,36.0,-100.00,East,79,5.0,-999.0,52,0.00,,,-99.99,,2013-03-07 20:21:00,
2013-03-07 12:32:00,53.0,36.0,-100.00,East,79,5.0,-999.0,52,0.00,,,-99.99,,2013-03-07 20:32:00,
2013-03-07 12:41:00,53.0,36.0,-100.00,East,79,5.0,-999.0,52,0.00,,,-99.99,,2013-03-07 20:41:00,
2013-03-07 13:02:00,54.0,37.0,-100.00,East,98,7.0,-999.0,53,0.00,,,-99.99,,2013-03-07 21:02:00,
2013-03-07 13:12:00,54.0,37.0,-100.00,East,98,7.0,-999.0,53,0.00,,,-99.99,,2013-03-07 21:12:00,
2013-03-07 13:22:00,54.0,37.0,-100.00,East,98,7.0,-999.0,53,0.00,,,-99.99,,2013-03-07 21:22:00,
2013-03-07 13:32:00,54.0,37.0,-100.00,East,98,7.0,-999.0,53,0.00,,,-99.99,,2013-03-07 21:32:00,
2013-03-07 13:41:00,54.0,37.0,-100.00,East,98,7.0,-999.0,53,0.00,,,-99.99,,2013-03-07 21:41:00,
2013-03-07 14:01:00,54.0,38.0,-100.00,ENE,72,8.0,-999.0,53,0.00,,,-99.99,,2013-03-07 22:01:00,
2013-03-07 14:11:00,54.0,38.0,-100.00,ENE,72,8.0,-999.0,53,0.00,,,-99.99,,2013-03-07 22:11:00,
2013-03-07 14:22:00,54.0,38.0,-100.00,ENE,72,8.0,-999.0,53,0.00,,,-99.99,,2013-03-07 22:22:00,
2013-03-07 14:32:00,54.0,38.0,-100.00,ENE,72,8.0,-999.0,53,0.00,,,-99.99,,2013-03-07 22:32:00,
2013-03-07 14:41:00,54.0,38.0,-100.00,ENE,72,8.0,-999.0,53,0.00,,,-99.99,,2013-03-07 22:41:00,
2013-03-07 15:02:00,55.0,37.0,-100.00,East,80,7.0,-999.0,52,0.00,,,-99.99,,2013-03-07 23:02:00,
2013-03-07 15:12:00,55.0,37.0,-100.00,East,80,7.0,-999.0,52,0.00,,,-99.99,,2013-03-07 23:12:00,
2013-03-07 15:21:00,55.0,37.0,-100.00,East,80,7.0,-999.0,52,0.00,,,-99.99,,2013-03-07 23:21:00,
2013-03-07 15:32:00,55.0,37.0,-100.00,East,80,7.0,-999.0,52,0.00,,,-99.99,,2013-03-07 23:32:00,
2013-03-07 15:41:00,55.0,37.0,-100.00,East,80,7.0,-999.0,52,0.00,,,-99.99,,2013-03-07 23:41:00,
2013-03-07 16:03:00,55.0,38.0,-100.00,East,82,7.0,-999.0,52,0.00,,,-99.99,,2013-03-08 00:03:00,
2013-03-07 16:12:00,55.0,38.0,-100.00,East,82,7.0,-999.0,52,0.00,,,-99.99,,2013-03-08 00:12:00,
2013-03-07 16:22:00,55.0,38.0,-100.00,East,82,7.0,-999.0,52,0.00,,,-99.99,,2013-03-08 00:22:00,
2013-03-07 16:32:00,55.0,38.0,-100.00,East,82,7.0,-999.0,52,0.00,,,-99.99,,2013-03-08 00:32:00,
2013-03-07 16:42:00,55.0,38.0,-100.00,East,82,7.0,-999.0,52,0.00,,,-99.99,,2013-03-08 00:42:00,
2013-03-07 17:01:00,55.0,37.0,-100.00,ENE,65,7.0,-999.0,51,0.00,,,-99.99,,2013-03-08 01:01:00,
2013-03-07 17:11:00,55.0,37.0,-100.00,ENE,65,7.0,-999.0,51,0.00,,,-99.99,,2013-03-08 01:11:00,
2013-03-07 17:21:00,55.0,37.0,-100.00,ENE,65,7.0,-999.0,51,0.00,,,-99.99,,2013-03-08 01:21:00,
2013-03-07 17:32:00,55.0,37.0,-100.00,ENE,65,7.0,-999.0,51,0.00,,,-99.99,,2013-03-08 01:32:00,
2013-03-07 17:41:00,55.0,37.0,-100.00,ENE,65,7.0,-999.0,51,0.00,,,-99.99,,2013-03-08 01:41:00,
2013-03-07 18:01:00,53.0,39.0,-100.00,NE,52,4.0,-999.0,60,0.00,,,-99.99,,2013-03-08 02:01:00,
2013-03-07 18:11:00,53.0,39.0,-100.00,NE,52,4.0,-999.0,60,0.00,,,-99.99,,2013-03-08 02:11:00,
2013-03-07 18:21:00,53.0,39.0,-100.00,NE,52,4.0,-999.0,60,0.00,,,-99.99,,2013-03-08 02:21:00,
2013-03-07 18:31:00,53.0,39.0,-100.00,NE,52,4.0,-999.0,60,0.00,,,-99.99,,2013-03-08 02:31:00,
2013-03-07 18:41:00,53.0,39.0,-100.00,NE,52,4.0,-999.0,60,0.00,,,-99.99,,2013-03-08 02:41:00,
2013-03-07 19:02:00,52.0,38.0,-100.00,NNE,31,7.0,-999.0,59,0.00,,,-99.99,,2013-03-08 03:02:00,
2013-03-07 19:11:00,52.0,38.0,-100.00,NNE,31,7.0,-999.0,59,0.00,,,-99.99,,2013-03-08 03:11:00,
2013-03-07 19:22:00,52.0,38.0,-100.00,NNE,31,7.0,-999.0,59,0.00,,,-99.99,,2013-03-08 03:22:00,
2013-03-07 19:32:00,52.0,38.0,-100.00,NNE,31,7.0,-999.0,59,0.00,,,-99.99,,2013-03-08 03:32:00,
2013-03-07 19:41:00,52.0,38.0,-100.00,NNE,31,7.0,-999.0,59,0.00,,,-99.99,,2013-03-08 03:41:00,
2013-03-07 20:01:00,52.0,37.0,-100.00,NNE,21,8.0,-999.0,56,0.00,,,-99.99,,2013-03-08 04:01:00,
2013-03-07 20:11:00,52.0,37.0,-100.00,NNE,21,8.0,-999.0,56,0.00,,,-99.99,,2013-03-08 04:11:00,
2013-03-07 20:21:00,52.0,37.0,-100.00,NNE,21,8.0,-999.0,56,0.00,,,-99.99,,2013-03-08 04:21:00,
2013-03-07 20:31:00,52.0,37.0,-100.00,NNE,21,8.0,-999.0,56,0.00,,,-99.99,,2013-03-08 04:31:00,
2013-03-07 20:42:00,52.0,37.0,-100.00,NNE,21,8.0,-999.0,56,0.00,,,-99.99,,2013-03-08 04:42:00,
2013-03-07 21:01:00,49.0,39.0,-100.00,ENE,68,8.0,-999.0,67,0.00,,,-99.99,,2013-03-08 05:01:00,
2013-03-07 21:12:00,49.0,39.0,-100.00,ENE,68,8.0,-999.0,67,0.00,,,-99.99,,2013-03-08 05:12:00,
2013-03-07 21:22:00,49.0,39.0,-100.00,ENE,68,8.0,-999.0,67,0.00,,,-99.99,,2013-03-08 05:22:00,
2013-03-07 21:32:00,49.0,39.0,-100.00,ENE,68,8.0,-999.0,67,0.00,,,-99.99,,2013-03-08 05:32:00,
2013-03-07 21:42:00,49.0,39.0,-100.00,ENE,68,8.0,-999.0,67,0.00,,,-99.99,,2013-03-08 05:42:00,
2013-03-07 22:01:00,49.0,39.0,-100.00,ENE,65,6.0,-999.0,68,0.00,,,-99.99,,2013-03-08 06:01:00,
2013-03-07 22:11:00,49.0,39.0,-100.00,ENE,65,6.0,-999.0,68,0.00,,,-99.99,,2013-03-08 06:11:00,
2013-03-07 22:21:00,49.0,39.0,-100.00,ENE,65,6.0,-999.0,68,0.00,,,-99.99,,2013-03-08 06:21:00,
2013-03-07 22:31:00,49.0,39.0,-100.00,ENE,65,6.0,-999.0,68,0.00,,,-99.99,,2013-03-08 06:31:00,
2013-03-07 22:41:00,49.0,39.0,-100.00,ENE,65,6.0,-999.0,68,0.00,,,-99.99,,2013-03-08 06:41:00,
2013-03-07 23:01:00,48.0,38.0,-100.00,NE,46,5.0,-999.0,70,0.00,,,-99.99,,2013-03-08 07:01:00,
2013-03-07 23:11:00,48.0,38.0,-100.00,NE,46,5.0,-999.0,70,0.00,,,-99.99,,2013-03-08 07:11:00,
2013-03-07 23:21:00,48.0,38.0,-100.00,NE,46,5.0,-999.0,70,0.00,,,-99.99,,2013-03-08 07:21:00,
2013-03-07 23:31:00,48.0,38.0,-100.00,NE,46,5.0,-999.0,70,0.00,,,-99.99,,2013-03-08 07:31:00,
2013-03-07 23:41:00,48.0,38.0,-100.00,NE,46,5.0,-999.0,70,0.00,,,-99.99,,2013-03-08 07:41:00,